createdAt,value
2018-04-13T00:00:37.646Z,8.81
2018-04-13T00:03:04.961Z,8.26
2018-04-13T00:05:39.042Z,8.17
2018-04-13T00:08:05.825Z,8.28
2018-04-13T00:10:32.558Z,7.55
2018-04-13T00:12:59.282Z,7.69
2018-04-13T00:15:29.706Z,7.08
2018-04-13T00:17:56.511Z,7.80
2018-04-13T00:20:23.342Z,8.16
2018-04-13T00:22:50.061Z,7.99
2018-04-13T00:25:17.917Z,6.95
2018-04-13T00:27:44.717Z,7.16
2018-04-13T00:30:11.543Z,6.98
2018-04-13T00:32:38.282Z,6.82
2018-04-13T00:35:09.602Z,6.90
2018-04-13T00:37:36.355Z,7.08
2018-04-13T00:40:03.002Z,7.74
2018-04-13T00:42:29.738Z,7.80
2018-04-13T00:45:00.481Z,7.91
2018-04-13T00:47:27.278Z,8.10
2018-04-13T00:49:53.983Z,7.67
2018-04-13T00:52:20.693Z,7.93
2018-04-13T00:54:48.410Z,8.09
2018-04-13T00:57:15.097Z,8.30
2018-04-13T00:59:41.809Z,8.43
2018-04-13T01:02:08.590Z,8.08
2018-04-13T01:04:36.427Z,7.95
2018-04-13T01:07:03.100Z,8.16
2018-04-13T01:09:29.746Z,8.53
2018-04-13T01:11:56.452Z,8.81
2018-04-13T01:14:24.310Z,8.99
2018-04-13T01:16:51.099Z,8.99
2018-04-13T01:19:17.817Z,8.98
2018-04-13T01:21:44.596Z,7.53
2018-04-13T01:24:14.873Z,7.47
2018-04-13T01:26:41.533Z,7.26
2018-04-13T01:29:08.266Z,6.76
2018-04-13T01:31:34.967Z,7.08
2018-04-13T01:34:01.560Z,7.03
2018-04-13T01:36:28.328Z,7.57
2018-04-13T01:38:55.082Z,7.76
2018-04-13T01:41:21.780Z,7.69
2018-04-13T01:43:48.497Z,7.78
2018-04-13T01:46:19.457Z,7.73
2018-04-13T01:48:46.097Z,7.58
2018-04-13T01:51:12.855Z,7.55
2018-04-13T01:53:39.519Z,7.91
2018-04-13T01:56:07.705Z,8.27
2018-04-13T01:58:34.493Z,8.40
2018-04-13T02:01:01.259Z,8.76
2018-04-13T02:03:27.961Z,8.17
2018-04-13T02:05:58.864Z,7.68
2018-04-13T02:08:25.569Z,7.49
2018-04-13T02:10:52.271Z,7.55
2018-04-13T02:13:18.893Z,7.07
2018-04-13T02:15:57.901Z,7.58
2018-04-13T02:18:24.439Z,8.00
2018-04-13T02:20:51.027Z,8.09
2018-04-13T02:23:17.736Z,8.08
2018-04-13T02:25:48.126Z,8.24
2018-04-13T02:28:14.641Z,8.00
2018-04-13T02:30:41.216Z,8.07
2018-04-13T02:33:07.913Z,8.12
2018-04-13T02:35:38.283Z,8.15
2018-04-13T02:38:04.901Z,7.46
2018-04-13T02:40:31.657Z,7.28
2018-04-13T02:42:58.302Z,7.04
2018-04-13T02:45:28.029Z,7.10
2018-04-13T02:47:54.763Z,7.07
2018-04-13T02:50:21.496Z,7.77
2018-04-13T02:52:48.046Z,7.90
2018-04-13T02:55:18.098Z,7.81
2018-04-13T02:57:44.842Z,8.00
2018-04-13T03:00:11.575Z,7.78
2018-04-13T03:02:38.296Z,7.21
2018-04-13T03:05:08.216Z,7.01
2018-04-13T03:07:35.033Z,7.38
2018-04-13T03:10:01.533Z,7.65
2018-04-13T03:12:28.171Z,7.62
2018-04-13T03:15:00.704Z,7.41
2018-04-13T03:17:27.409Z,7.79
2018-04-13T03:19:54.140Z,8.09
2018-04-13T03:22:20.881Z,7.49
2018-04-13T03:24:51.564Z,6.97
2018-04-13T03:27:18.277Z,6.82
2018-04-13T03:29:44.954Z,6.94
2018-04-13T03:32:11.794Z,6.93
2018-04-13T03:34:39.472Z,7.24
2018-04-13T03:37:06.181Z,7.74
2018-04-13T03:39:32.902Z,7.81
2018-04-13T03:41:59.702Z,8.05
2018-04-13T03:44:27.538Z,8.21
2018-04-13T03:46:54.292Z,8.28
2018-04-13T03:49:20.934Z,7.97
2018-04-13T03:51:47.506Z,8.15
2018-04-13T03:54:15.402Z,8.36
2018-04-13T03:56:41.961Z,7.35
2018-04-13T03:59:08.686Z,7.49
2018-04-13T04:01:35.401Z,7.66
2018-04-13T04:04:05.850Z,8.09
2018-04-13T04:06:32.453Z,7.56
2018-04-13T04:08:59.232Z,7.35
2018-04-13T04:11:25.817Z,7.84
2018-04-13T04:13:52.481Z,8.01
2018-04-13T04:16:19.114Z,7.96
2018-04-13T04:18:45.876Z,8.15
2018-04-13T04:21:24.317Z,8.19
2018-04-13T04:24:06.974Z,8.52
2018-04-13T04:26:49.474Z,8.93
2018-04-13T04:29:16.118Z,8.84
2018-04-13T04:31:42.796Z,8.87
2018-04-13T04:34:15.402Z,8.79
2018-04-13T04:36:42.053Z,9.03
2018-04-13T04:39:08.718Z,9.60
2018-04-13T04:41:35.425Z,9.93
2018-04-13T04:44:02.000Z,10.23
2018-04-13T04:46:28.682Z,10.34
2018-04-13T04:48:55.310Z,10.11
2018-04-13T04:51:21.970Z,10.16
2018-04-13T04:53:52.034Z,9.16
2018-04-13T04:56:18.671Z,8.72
2018-04-13T04:58:45.361Z,8.31
2018-04-13T05:01:12.053Z,8.29
2018-04-13T05:03:43.398Z,8.01
2018-04-13T05:06:10.192Z,8.08
2018-04-13T05:08:36.934Z,8.07
2018-04-13T05:11:03.562Z,8.00
2018-04-13T05:13:30.145Z,7.80
2018-04-13T05:15:57.337Z,8.33
2018-04-13T05:18:23.897Z,8.20
2018-04-13T05:20:50.654Z,8.29
2018-04-13T05:23:17.331Z,8.60
2018-04-13T05:25:50.689Z,8.17
2018-04-13T05:28:17.378Z,8.59
2018-04-13T05:30:44.089Z,8.29
2018-04-13T05:33:10.813Z,8.65
2018-04-13T05:35:40.730Z,8.92
2018-04-13T05:38:07.777Z,8.80
2018-04-13T05:40:34.424Z,9.67
2018-04-13T05:43:01.125Z,9.46
2018-04-13T05:45:32.553Z,9.91
2018-04-13T05:47:59.213Z,10.21
2018-04-13T05:50:25.865Z,10.45
2018-04-13T05:52:52.575Z,10.59
2018-04-13T05:55:23.759Z,10.34
2018-04-13T05:57:50.478Z,10.41
2018-04-13T06:00:17.190Z,10.66
2018-04-13T06:02:43.853Z,10.46
2018-04-13T06:05:13.893Z,10.27
2018-04-13T06:07:40.531Z,10.52
2018-04-13T06:10:07.250Z,10.02
2018-04-13T06:12:33.915Z,10.20
2018-04-13T06:15:07.710Z,10.28
2018-04-13T06:17:34.428Z,10.54
2018-04-13T06:20:01.045Z,10.75
2018-04-13T06:22:27.773Z,10.85
2018-04-13T06:24:58.414Z,10.88
2018-04-13T06:27:25.118Z,10.43
2018-04-13T06:29:51.710Z,11.44
2018-04-13T06:32:18.369Z,11.56
2018-04-13T06:34:46.199Z,11.16
2018-04-13T06:37:12.752Z,11.49
2018-04-13T06:39:40.015Z,11.59
2018-04-13T06:42:06.637Z,11.90
2018-04-13T06:44:33.453Z,11.53
2018-04-13T06:47:00.029Z,12.13
2018-04-13T06:49:26.576Z,12.11
2018-04-13T06:51:53.125Z,12.46
2018-04-13T06:54:31.453Z,12.07
2018-04-13T06:56:57.974Z,12.67
2018-04-13T06:59:24.614Z,12.69
2018-04-13T07:01:51.815Z,13.07
2018-04-13T07:04:18.484Z,12.79
2018-04-13T07:06:45.234Z,13.56
2018-04-13T07:09:11.908Z,13.31
2018-04-13T07:11:38.457Z,13.84
2018-04-13T07:14:08.315Z,13.83
2018-04-13T07:16:34.933Z,13.86
2018-04-13T07:19:01.544Z,14.31
2018-04-13T07:21:28.270Z,14.53
2018-04-13T07:23:59.377Z,14.62
2018-04-13T07:26:26.165Z,14.29
2018-04-13T07:28:52.870Z,14.04
2018-04-13T07:31:19.498Z,14.09
2018-04-13T07:33:51.768Z,14.66
2018-04-13T07:36:18.607Z,13.90
2018-04-13T07:38:45.064Z,14.60
2018-04-13T07:41:11.640Z,14.53
2018-04-13T07:43:41.906Z,14.83
2018-04-13T07:46:08.490Z,14.81
2018-04-13T07:48:35.127Z,15.01
2018-04-13T07:51:01.863Z,13.83
2018-04-13T07:53:29.501Z,13.98
2018-04-13T07:55:56.238Z,14.85
2018-04-13T07:58:22.962Z,14.25
2018-04-13T08:00:50.369Z,14.25
2018-04-13T08:03:23.638Z,15.38
2018-04-13T08:05:50.222Z,14.02
2018-04-13T08:08:16.785Z,14.89
2018-04-13T08:10:43.371Z,14.47
2018-04-13T08:13:17.766Z,14.94
2018-04-13T08:15:44.401Z,15.70
2018-04-13T08:18:11.040Z,14.78
2018-04-13T08:20:37.768Z,15.05
2018-04-13T08:23:15.024Z,14.58
2018-04-13T08:25:41.707Z,15.57
2018-04-13T08:28:08.330Z,14.80
2018-04-13T08:30:34.948Z,15.01
2018-04-13T08:33:02.749Z,14.95
2018-04-13T08:35:29.399Z,15.39
2018-04-13T08:37:55.931Z,14.92
2018-04-13T08:40:22.600Z,14.86
2018-04-13T08:42:49.367Z,15.31
2018-04-13T08:45:22.662Z,14.71
2018-04-13T08:47:49.382Z,14.87
2018-04-13T08:50:15.976Z,13.79
2018-04-13T08:52:42.517Z,14.20
2018-04-13T08:55:10.201Z,13.76
2018-04-13T08:57:36.953Z,14.06
2018-04-13T09:00:03.436Z,15.26
2018-04-13T09:02:29.983Z,15.94
2018-04-13T09:04:57.740Z,16.55
2018-04-13T09:07:24.365Z,16.70
2018-04-13T09:09:50.890Z,16.36
2018-04-13T09:12:18.038Z,14.89
2018-04-13T09:14:48.337Z,17.30
2018-04-13T09:17:14.989Z,16.92
2018-04-13T09:19:41.549Z,16.51
2018-04-13T09:22:08.151Z,15.75
2018-04-13T09:24:38.262Z,17.08
2018-04-13T09:27:04.727Z,16.72
2018-04-13T09:29:31.295Z,17.21
2018-04-13T09:31:57.785Z,18.24
2018-04-13T09:34:29.582Z,16.55
2018-04-13T09:36:56.309Z,17.10
2018-04-13T09:39:22.982Z,17.93
2018-04-13T09:41:50.113Z,19.08
2018-04-13T09:44:33.696Z,17.58
2018-04-13T09:47:00.355Z,17.69
2018-04-13T09:49:27.034Z,17.96
2018-04-13T09:51:53.735Z,18.40
2018-04-13T09:54:25.337Z,18.53
2018-04-13T09:56:52.334Z,17.22
2018-04-13T09:59:19.025Z,16.58
2018-04-13T10:01:45.678Z,17.46
2018-04-13T10:04:13.404Z,17.75
2018-04-13T10:06:39.969Z,17.75
2018-04-13T10:09:06.605Z,17.54
2018-04-13T10:11:33.228Z,17.72
2018-04-13T10:14:00.014Z,17.39
2018-04-13T10:16:26.618Z,17.66
2018-04-13T10:18:53.325Z,15.80
2018-04-13T10:21:19.894Z,17.23
2018-04-13T10:23:50.105Z,16.88
2018-04-13T10:26:20.580Z,16.61
2018-04-13T10:28:47.169Z,17.06
2018-04-13T10:31:13.825Z,18.38
2018-04-13T10:33:44.621Z,19.06
2018-04-13T10:36:11.313Z,19.90
2018-04-13T10:38:37.938Z,17.99
2018-04-13T10:41:04.544Z,19.13
2018-04-13T10:43:37.566Z,18.01
2018-04-13T10:46:04.287Z,18.37
2018-04-13T10:48:30.901Z,18.38
2018-04-13T10:50:57.517Z,19.12
2018-04-13T10:53:25.146Z,19.14
2018-04-13T10:55:51.694Z,18.84
2018-04-13T10:58:18.397Z,18.71
2018-04-13T11:00:45.110Z,19.99
2018-04-13T11:03:15.153Z,19.69
2018-04-13T11:05:41.895Z,20.24
2018-04-13T11:08:08.613Z,19.01
2018-04-13T11:10:35.245Z,19.81
2018-04-13T11:13:09.040Z,20.08
2018-04-13T11:15:35.776Z,19.30
2018-04-13T11:18:02.426Z,20.24
2018-04-13T11:20:29.127Z,21.60
2018-04-13T11:23:01.449Z,20.62
2018-04-13T11:25:27.982Z,19.73
2018-04-13T11:27:54.591Z,20.90
2018-04-13T11:30:21.186Z,20.78
2018-04-13T11:32:51.468Z,22.53
2018-04-13T11:35:18.071Z,21.42
2018-04-13T11:37:44.763Z,22.23
2018-04-13T11:40:12.027Z,20.88
2018-04-13T11:42:39.742Z,22.46
2018-04-13T11:45:06.350Z,21.06
2018-04-13T11:47:32.972Z,20.43
2018-04-13T11:49:59.542Z,20.48
2018-04-13T11:52:26.217Z,21.47
2018-04-13T11:54:52.973Z,22.41
2018-04-13T11:57:19.508Z,22.42
2018-04-13T11:59:46.213Z,23.33
2018-04-13T12:02:12.837Z,23.27
2018-04-13T12:04:43.854Z,22.76
2018-04-13T12:07:10.485Z,21.02
2018-04-13T12:09:37.158Z,20.93
2018-04-13T12:12:03.807Z,22.56
2018-04-13T12:14:40.613Z,21.24
2018-04-13T12:17:07.257Z,23.28
2018-04-13T12:19:33.933Z,22.57
2018-04-13T12:22:00.719Z,21.10
2018-04-13T12:24:30.899Z,22.25
2018-04-13T12:26:57.441Z,23.68
2018-04-13T12:29:24.017Z,23.61
2018-04-13T12:31:50.692Z,22.05
2018-04-13T12:34:27.908Z,24.18
2018-04-13T12:36:54.664Z,22.09
2018-04-13T12:39:21.370Z,22.41
2018-04-13T12:41:48.057Z,22.04
2018-04-13T12:44:24.866Z,23.08
2018-04-13T12:46:51.595Z,24.33
2018-04-13T12:49:18.097Z,22.45
2018-04-13T12:51:44.823Z,22.82
2018-04-13T12:54:17.129Z,21.90
2018-04-13T12:56:43.701Z,22.36
2018-04-13T12:59:10.310Z,22.15
2018-04-13T13:01:37.041Z,22.71
2018-04-13T13:04:06.776Z,21.97
2018-04-13T13:06:33.398Z,21.27
2018-04-13T13:08:59.945Z,21.94
2018-04-13T13:11:26.643Z,22.57
2018-04-13T13:13:57.279Z,22.07
2018-04-13T13:16:23.910Z,22.17
2018-04-13T13:18:50.572Z,23.04
2018-04-13T13:21:17.171Z,23.49
2018-04-13T13:23:54.020Z,24.22
2018-04-13T13:26:20.654Z,23.17
2018-04-13T13:28:47.286Z,23.76
2018-04-13T13:31:13.878Z,24.03
2018-04-13T13:33:54.032Z,23.57
2018-04-13T13:36:20.717Z,21.56
2018-04-13T13:38:47.327Z,22.93
2018-04-13T13:41:13.955Z,22.71
2018-04-13T13:43:40.838Z,21.61
2018-04-13T13:46:07.345Z,21.37
2018-04-13T13:48:34.026Z,22.68
2018-04-13T13:51:00.618Z,23.55
2018-04-13T13:53:31.193Z,22.34
2018-04-13T13:55:57.830Z,23.51
2018-04-13T13:58:24.453Z,23.82
2018-04-13T14:00:51.030Z,23.76
2018-04-13T14:03:18.657Z,23.20
2018-04-13T14:05:45.427Z,22.85
2018-04-13T14:08:12.146Z,23.86
2018-04-13T14:10:38.873Z,21.89
2018-04-13T14:13:11.205Z,22.20
2018-04-13T14:15:37.901Z,22.06
2018-04-13T14:18:04.610Z,23.74
2018-04-13T14:20:31.113Z,23.84
2018-04-13T14:23:03.496Z,22.91
2018-04-13T14:25:30.170Z,23.76
2018-04-13T14:27:56.876Z,22.95
2018-04-13T14:33:12.004Z,22.13
2018-04-13T14:35:38.627Z,22.58
2018-04-13T14:38:05.358Z,22.75
2018-04-13T14:40:32.057Z,21.56
2018-04-13T14:42:59.778Z,23.66
2018-04-13T14:45:26.313Z,23.39
2018-04-13T14:47:52.954Z,21.58
2018-04-13T14:50:19.553Z,21.57
2018-04-13T14:52:49.540Z,21.08
2018-04-13T14:55:16.275Z,21.04
2018-04-13T14:57:43.356Z,20.33
2018-04-13T15:00:09.907Z,21.30
2018-04-13T15:02:40.176Z,21.25
2018-04-13T15:05:06.698Z,22.69
2018-04-13T15:07:33.262Z,22.34
2018-04-13T15:09:59.771Z,22.69
2018-04-13T15:12:26.465Z,21.62
2018-04-13T15:14:53.179Z,21.00
2018-04-13T15:17:19.790Z,21.97
2018-04-13T15:19:46.398Z,22.63
2018-04-13T15:22:16.901Z,20.99
2018-04-13T15:24:43.605Z,20.70
2018-04-13T15:27:10.254Z,20.20
2018-04-13T15:29:36.943Z,20.97
2018-04-13T15:32:03.574Z,20.27
2018-04-13T15:34:30.130Z,19.20
2018-04-13T15:36:56.843Z,19.39
2018-04-13T15:39:23.245Z,18.93
2018-04-13T15:41:49.619Z,18.87
2018-04-13T15:44:16.181Z,20.08
2018-04-13T15:46:42.762Z,19.66
2018-04-13T15:49:09.892Z,18.94
2018-04-13T15:51:36.600Z,17.55
2018-04-13T15:54:08.397Z,18.60
2018-04-13T15:56:35.060Z,16.89
2018-04-13T15:59:01.576Z,17.03
2018-04-13T16:01:28.053Z,16.09
2018-04-13T16:03:58.598Z,16.32
2018-04-13T16:06:25.230Z,14.62
2018-04-13T16:08:51.867Z,14.55
2018-04-13T16:11:18.510Z,15.68
2018-04-13T16:13:48.552Z,14.38
2018-04-13T16:16:15.220Z,13.07
2018-04-13T16:18:41.833Z,12.85
2018-04-13T16:21:08.468Z,13.19
2018-04-13T16:23:38.421Z,12.86
2018-04-13T16:26:05.073Z,12.54
2018-04-13T16:28:31.757Z,12.42
2018-04-13T16:30:58.413Z,12.23
2018-04-13T16:33:28.511Z,11.71
2018-04-13T16:35:55.745Z,11.22
2018-04-13T16:38:22.345Z,11.43
2018-04-13T16:40:48.840Z,11.30
2018-04-13T16:43:15.470Z,10.61
2018-04-13T16:45:42.170Z,11.00
2018-04-13T16:48:08.818Z,10.59
2018-04-13T16:50:35.499Z,10.18
2018-04-13T16:53:03.270Z,9.90
2018-04-13T16:55:29.982Z,10.38
2018-04-13T16:57:57.502Z,10.91
2018-04-13T17:00:24.190Z,10.48
2018-04-13T17:02:57.475Z,10.35
2018-04-13T17:05:24.116Z,10.21
2018-04-13T17:07:50.658Z,9.89
2018-04-13T17:10:18.693Z,9.49
2018-04-13T17:12:51.306Z,9.60
2018-04-13T17:15:18.063Z,9.56
2018-04-13T17:17:44.506Z,9.36
2018-04-13T17:20:11.448Z,10.37
2018-04-13T17:22:39.119Z,9.17
2018-04-13T17:25:05.803Z,10.32
2018-04-13T17:27:32.456Z,10.18
2018-04-13T17:29:59.012Z,10.00
2018-04-13T17:32:28.906Z,9.90
2018-04-13T17:34:55.476Z,10.27
2018-04-13T17:37:22.050Z,9.97
2018-04-13T17:39:48.688Z,9.12
2018-04-13T17:42:20.874Z,9.80
2018-04-13T17:44:48.197Z,9.38
2018-04-13T17:47:14.935Z,9.17
2018-04-13T17:49:41.665Z,9.88
2018-04-13T17:52:14.430Z,10.04
2018-04-13T17:54:41.070Z,10.34
2018-04-13T17:57:07.811Z,10.73
2018-04-13T17:59:34.469Z,10.70
2018-04-13T18:02:05.923Z,10.45
2018-04-13T18:04:32.607Z,10.78
2018-04-13T18:06:59.266Z,9.87
2018-04-13T18:09:25.938Z,9.71
2018-04-13T18:11:56.014Z,10.03
2018-04-13T18:14:22.591Z,10.36
2018-04-13T18:16:49.128Z,10.31
2018-04-13T18:19:15.695Z,10.62
2018-04-13T18:21:46.301Z,10.78
2018-04-13T18:24:12.915Z,9.12
2018-04-13T18:26:39.494Z,9.32
2018-04-13T18:29:06.086Z,9.73
2018-04-13T18:31:38.954Z,10.17
2018-04-13T18:34:05.560Z,10.02
2018-04-13T18:36:32.682Z,9.82
2018-04-13T18:38:59.210Z,9.41
2018-04-13T18:41:25.745Z,10.14
2018-04-13T18:43:52.373Z,9.67
2018-04-13T18:46:19.010Z,10.09
2018-04-13T18:48:46.531Z,9.36
2018-04-13T18:51:13.108Z,9.64
2018-04-13T18:53:46.590Z,9.68
2018-04-13T18:56:13.203Z,9.79
2018-04-13T18:58:39.801Z,10.22
2018-04-13T19:01:06.383Z,10.11
2018-04-13T19:03:34.142Z,10.30
2018-04-13T19:06:00.818Z,10.35
2018-04-13T19:08:27.466Z,9.91
2018-04-13T19:10:54.131Z,9.95
2018-04-13T19:13:21.051Z,9.95
2018-04-13T19:15:47.717Z,10.41
2018-04-13T19:18:14.315Z,9.93
2018-04-13T19:20:41.027Z,9.76
2018-04-13T19:23:10.958Z,9.97
2018-04-13T19:25:37.543Z,9.81
2018-04-13T19:28:04.109Z,9.52
2018-04-13T19:30:30.781Z,9.87
2018-04-13T19:33:01.006Z,10.23
2018-04-13T19:35:27.694Z,9.95
2018-04-13T19:37:54.214Z,9.46
2018-04-13T19:40:20.774Z,10.29
2018-04-13T19:42:51.175Z,9.98
2018-04-13T19:45:17.745Z,9.57
2018-04-13T19:47:44.327Z,10.13
2018-04-13T19:50:10.985Z,10.31
2018-04-13T19:52:41.337Z,10.21
2018-04-13T19:55:07.973Z,10.31
2018-04-13T19:57:34.614Z,10.17
2018-04-13T20:00:01.138Z,10.27
2018-04-13T20:02:28.990Z,10.28
2018-04-13T20:04:55.692Z,9.16
2018-04-13T20:07:23.321Z,9.47
2018-04-13T20:09:49.838Z,9.98
2018-04-13T20:12:20.336Z,9.73
2018-04-13T20:14:47.261Z,10.02
2018-04-13T20:17:14.014Z,9.39
2018-04-13T20:19:40.627Z,9.39
2018-04-13T20:22:13.439Z,9.85
2018-04-13T20:24:41.023Z,9.93
2018-04-13T20:27:08.173Z,9.83
2018-04-13T20:29:34.827Z,9.87
2018-04-13T20:32:06.135Z,9.28
2018-04-13T20:34:32.693Z,9.75
2018-04-13T20:36:59.203Z,9.49
2018-04-13T20:39:25.715Z,9.48
2018-04-13T20:41:56.138Z,9.37
2018-04-13T20:44:22.767Z,9.62
2018-04-13T20:46:49.299Z,9.87
2018-04-13T20:49:15.994Z,9.58
2018-04-13T20:51:46.226Z,9.67
2018-04-13T20:54:12.870Z,8.98
2018-04-13T20:56:39.470Z,9.50
2018-04-13T20:59:06.097Z,9.63
2018-04-13T21:01:33.739Z,9.71
2018-04-13T21:04:00.277Z,9.72
2018-04-13T21:06:26.795Z,9.13
2018-04-13T21:08:53.436Z,9.32
2018-04-13T21:11:30.433Z,9.69
2018-04-13T21:13:57.131Z,9.88
2018-04-13T21:16:24.258Z,10.33
2018-04-13T21:18:50.857Z,9.94
2018-04-13T21:21:18.657Z,9.86
2018-04-13T21:23:45.295Z,9.27
2018-04-13T21:26:11.946Z,9.85
2018-04-13T21:28:38.519Z,9.19
2018-04-13T21:31:10.816Z,9.38
2018-04-13T21:33:37.393Z,9.34
2018-04-13T21:36:04.055Z,9.49
2018-04-13T21:38:30.579Z,9.05
2018-04-13T21:40:57.185Z,9.68
2018-04-13T21:43:23.748Z,9.78
2018-04-13T21:45:50.327Z,9.35
2018-04-13T21:48:16.898Z,9.26
2018-04-13T21:50:43.458Z,9.28
2018-04-13T21:53:16.101Z,9.48
2018-04-13T21:55:42.682Z,9.51
2018-04-13T21:58:09.332Z,8.89
2018-04-13T22:00:35.938Z,8.92
2018-04-13T22:03:08.735Z,9.20
2018-04-13T22:05:35.362Z,9.69
2018-04-13T22:08:01.909Z,9.69
2018-04-13T22:10:28.480Z,9.64
2018-04-13T22:13:12.168Z,9.65
2018-04-13T22:15:38.605Z,9.91
2018-04-13T22:18:05.424Z,10.11
2018-04-13T22:20:32.101Z,9.95
2018-04-13T22:22:59.856Z,9.54
2018-04-13T22:25:26.414Z,9.42
2018-04-13T22:27:53.013Z,9.03
2018-04-13T22:30:19.584Z,8.86
2018-04-13T22:32:49.381Z,9.03
2018-04-13T22:35:16.063Z,9.48
2018-04-13T22:37:42.635Z,8.96
2018-04-13T22:40:09.297Z,9.32
2018-04-13T22:42:36.953Z,9.08
2018-04-13T22:45:03.493Z,9.19
2018-04-13T22:47:30.062Z,9.00
2018-04-13T22:49:56.689Z,8.76
2018-04-13T22:52:26.489Z,8.95
2018-04-13T22:54:53.130Z,9.44
2018-04-13T22:57:19.787Z,9.25
2018-04-13T22:59:46.412Z,8.96
2018-04-13T23:02:14.149Z,8.76
2018-04-13T23:04:40.884Z,9.02
2018-04-13T23:07:07.553Z,8.85
2018-04-13T23:09:34.271Z,8.31
2018-04-13T23:12:01.073Z,7.93
2018-04-13T23:14:27.747Z,8.41
2018-04-13T23:16:54.396Z,8.15
2018-04-13T23:19:21.141Z,8.12
2018-04-13T23:21:55.362Z,8.75
2018-04-13T23:24:22.029Z,8.73
2018-04-13T23:26:48.587Z,8.98
2018-04-13T23:29:15.205Z,9.08
2018-04-13T23:31:42.163Z,8.72
2018-04-13T23:34:08.802Z,8.44
2018-04-13T23:36:35.517Z,7.83
2018-04-13T23:39:02.199Z,8.40
2018-04-13T23:41:29.107Z,8.87
2018-04-13T23:43:55.794Z,8.45
2018-04-13T23:46:22.412Z,7.83
2018-04-13T23:48:48.982Z,7.95
2018-04-13T23:51:16.916Z,8.02
2018-04-13T23:53:43.631Z,8.41
2018-04-13T23:56:10.327Z,8.62
2018-04-13T23:58:36.940Z,8.36
